sensor_id;sensor_type;location;lat;lon;timestamp;pressure;altitude;pressure_sealevel;temperature;humidity
64189;BME280;50493;50.970;10.082;2023-07-29T00:01:06;98635.22;;;21.31;62.92
64189;BME280;50493;50.970;10.082;2023-07-29T00:03:31;98626.00;;;20.90;58.99
64189;BME280;50493;50.970;10.082;2023-07-29T00:05:57;98634.38;;;21.08;62.60
64189;BME280;50493;50.970;10.082;2023-07-29T00:08:23;98629.91;;;21.19;57.16
64189;BME280;50493;50.970;10.082;2023-07-29T00:10:49;98628.47;;;21.27;63.41
64189;BME280;50493;50.970;10.082;2023-07-29T00:13:15;98626.72;;;21.03;57.60
64189;BME280;50493;50.970;10.082;2023-07-29T00:15:40;98622.88;;;21.07;59.30
64189;BME280;50493;50.970;10.082;2023-07-29T00:18:06;98611.69;;;21.26;62.89
64189;BME280;50493;50.970;10.082;2023-07-29T00:20:31;98619.88;;;21.12;58.05
64189;BME280;50493;50.970;10.082;2023-07-29T00:22:56;98621.91;;;20.97;57.35
64189;BME280;50493;50.970;10.082;2023-07-29T00:25:23;98626.03;;;21.01;57.05
64189;BME280;50493;50.970;10.082;2023-07-29T00:27:50;98627.97;;;21.10;57.37
64189;BME280;50493;50.970;10.082;2023-07-29T00:30:15;98625.56;;;21.18;61.97
64189;BME280;50493;50.970;10.082;2023-07-29T00:32:41;98630.63;;;21.10;57.06
64189;BME280;50493;50.970;10.082;2023-07-29T00:35:07;98623.38;;;21.12;57.69
64189;BME280;50493;50.970;10.082;2023-07-29T00:37:33;98624.59;;;21.19;56.52
64189;BME280;50493;50.970;10.082;2023-07-29T00:39:58;98617.59;;;21.52;61.19
64189;BME280;50493;50.970;10.082;2023-07-29T00:42:23;98617.59;;;21.41;60.21
64189;BME280;50493;50.970;10.082;2023-07-29T00:44:50;98617.56;;;21.07;56.73
64189;BME280;50493;50.970;10.082;2023-07-29T00:47:16;98622.78;;;21.20;60.11
64189;BME280;50493;50.970;10.082;2023-07-29T00:49:42;98619.03;;;21.45;60.38
64189;BME280;50493;50.970;10.082;2023-07-29T00:52:07;98617.25;;;21.34;58.67
64189;BME280;50493;50.970;10.082;2023-07-29T00:54:33;98619.53;;;21.28;62.57
64189;BME280;50493;50.970;10.082;2023-07-29T00:56:58;98620.97;;;21.09;58.24
64189;BME280;50493;50.970;10.082;2023-07-29T00:59:24;98617.69;;;21.05;61.28
64189;BME280;50493;50.970;10.082;2023-07-29T01:01:51;98616.34;;;21.00;63.40
64189;BME280;50493;50.970;10.082;2023-07-29T01:04:17;98612.75;;;21.01;62.49
64189;BME280;50493;50.970;10.082;2023-07-29T01:06:50;98601.88;;;21.04;58.68
64189;BME280;50493;50.970;10.082;2023-07-29T01:09:25;98606.94;;;21.07;62.89
64189;BME280;50493;50.970;10.082;2023-07-29T01:12:01;98611.78;;;21.02;63.11
64189;BME280;50493;50.970;10.082;2023-07-29T01:14:36;98604.91;;;20.99;63.60
64189;BME280;50493;50.970;10.082;2023-07-29T01:17:08;98603.06;;;20.88;58.45
64189;BME280;50493;50.970;10.082;2023-07-29T01:19:43;98603.69;;;21.03;62.54
64189;BME280;50493;50.970;10.082;2023-07-29T01:22:13;98595.53;;;20.82;58.54
64189;BME280;50493;50.970;10.082;2023-07-29T01:24:41;98601.34;;;20.87;57.83
64189;BME280;50493;50.970;10.082;2023-07-29T01:27:06;98602.34;;;20.98;57.02
64189;BME280;50493;50.970;10.082;2023-07-29T01:29:32;98601.03;;;21.03;58.91
64189;BME280;50493;50.970;10.082;2023-07-29T01:32:02;98610.41;;;20.96;56.31
64189;BME280;50493;50.970;10.082;2023-07-29T01:34:32;98612.38;;;20.94;56.07
64189;BME280;50493;50.970;10.082;2023-07-29T01:37:02;98615.41;;;21.12;59.62
64189;BME280;50493;50.970;10.082;2023-07-29T01:39:32;98600.94;;;21.28;62.59
64189;BME280;50493;50.970;10.082;2023-07-29T01:42:01;98596.78;;;21.12;62.43
64189;BME280;50493;50.970;10.082;2023-07-29T01:44:27;98599.34;;;21.02;60.25
64189;BME280;50493;50.970;10.082;2023-07-29T01:46:55;98601.38;;;20.99;56.70
64189;BME280;50493;50.970;10.082;2023-07-29T01:49:20;98613.16;;;20.83;56.67
64189;BME280;50493;50.970;10.082;2023-07-29T01:51:46;98615.56;;;20.75;56.33
64189;BME280;50493;50.970;10.082;2023-07-29T01:54:11;98608.56;;;20.85;56.70
64189;BME280;50493;50.970;10.082;2023-07-29T01:56:37;98615.41;;;21.12;57.69
64189;BME280;50493;50.970;10.082;2023-07-29T01:59:03;98621.19;;;21.17;58.75
64189;BME280;50493;50.970;10.082;2023-07-29T02:01:29;98614.44;;;21.13;56.33
64189;BME280;50493;50.970;10.082;2023-07-29T02:03:56;98618.31;;;21.09;56.84
64189;BME280;50493;50.970;10.082;2023-07-29T02:06:21;98609.31;;;20.87;56.44
64189;BME280;50493;50.970;10.082;2023-07-29T02:08:47;98599.91;;;20.95;57.33
64189;BME280;50493;50.970;10.082;2023-07-29T02:11:12;98599.91;;;20.95;58.46
64189;BME280;50493;50.970;10.082;2023-07-29T02:13:37;98603.44;;;21.07;59.61
64189;BME280;50493;50.970;10.082;2023-07-29T02:16:04;98593.94;;;20.80;59.08
64189;BME280;50493;50.970;10.082;2023-07-29T02:18:30;98588.75;;;20.78;56.70
64189;BME280;50493;50.970;10.082;2023-07-29T02:20:55;98583.69;;;20.86;63.16
64189;BME280;50493;50.970;10.082;2023-07-29T02:23:20;98575.47;;;20.78;63.74
64189;BME280;50493;50.970;10.082;2023-07-29T02:25:46;98582.78;;;20.52;58.07
64189;BME280;50493;50.970;10.082;2023-07-29T02:28:11;98589.69;;;20.54;57.13
64189;BME280;50493;50.970;10.082;2023-07-29T02:30:37;98594.75;;;20.58;56.68
64189;BME280;50493;50.970;10.082;2023-07-29T02:33:03;98583.19;;;20.70;56.25
64189;BME280;50493;50.970;10.082;2023-07-29T02:35:29;98582.31;;;21.05;62.96
64189;BME280;50493;50.970;10.082;2023-07-29T02:37:54;98578.81;;;21.04;63.58
64189;BME280;50493;50.970;10.082;2023-07-29T02:40:19;98575.53;;;20.90;63.60
64189;BME280;50493;50.970;10.082;2023-07-29T02:42:46;98572.13;;;20.76;57.90
64189;BME280;50493;50.970;10.082;2023-07-29T02:45:11;98575.97;;;20.83;56.68
64189;BME280;50493;50.970;10.082;2023-07-29T02:47:37;98567.09;;;20.96;61.33
64189;BME280;50493;50.970;10.082;2023-07-29T02:50:05;98567.34;;;20.93;56.04
64189;BME280;50493;50.970;10.082;2023-07-29T02:52:30;98572.13;;;20.76;56.03
64189;BME280;50493;50.970;10.082;2023-07-29T02:54:56;98572.25;;;20.86;55.37
64189;BME280;50493;50.970;10.082;2023-07-29T02:57:21;98569.50;;;20.99;56.00
64189;BME280;50493;50.970;10.082;2023-07-29T02:59:46;98558.97;;;20.39;65.71
64189;BME280;50493;50.970;10.082;2023-07-29T03:02:12;98555.81;;;20.34;66.41
64189;BME280;50493;50.970;10.082;2023-07-29T03:04:37;98556.47;;;20.13;66.81
64189;BME280;50493;50.970;10.082;2023-07-29T03:07:04;98559.63;;;19.94;67.64
64189;BME280;50493;50.970;10.082;2023-07-29T03:09:29;98551.94;;;19.78;67.06
64189;BME280;50493;50.970;10.082;2023-07-29T03:11:55;98553.25;;;19.97;63.70
64189;BME280;50493;50.970;10.082;2023-07-29T03:14:20;98560.75;;;19.79;64.56
64189;BME280;50493;50.970;10.082;2023-07-29T03:16:46;98545.75;;;20.15;59.45
64189;BME280;50493;50.970;10.082;2023-07-29T03:19:12;98544.50;;;20.43;61.69
64189;BME280;50493;50.970;10.082;2023-07-29T03:21:37;98541.34;;;20.38;57.87
64189;BME280;50493;50.970;10.082;2023-07-29T03:24:04;98535.75;;;20.18;57.27
64189;BME280;50493;50.970;10.082;2023-07-29T03:26:30;98540.44;;;20.50;64.51
64189;BME280;50493;50.970;10.082;2023-07-29T03:28:55;98533.94;;;20.54;57.17
64189;BME280;50493;50.970;10.082;2023-07-29T03:31:20;98530.53;;;20.41;56.35
64189;BME280;50493;50.970;10.082;2023-07-29T03:33:46;98520.88;;;20.51;56.44
64189;BME280;50493;50.970;10.082;2023-07-29T03:36:11;98525.03;;;20.67;56.75
64189;BME280;50493;50.970;10.082;2023-07-29T03:38:36;98524.50;;;20.50;55.85
64189;BME280;50493;50.970;10.082;2023-07-29T03:41:06;98525.47;;;20.61;56.99
64189;BME280;50493;50.970;10.082;2023-07-29T03:43:32;98525.47;;;20.61;55.29
64189;BME280;50493;50.970;10.082;2023-07-29T03:45:57;98519.66;;;20.44;55.99
64189;BME280;50493;50.970;10.082;2023-07-29T03:48:22;98526.09;;;20.64;56.14
64189;BME280;50493;50.970;10.082;2023-07-29T03:50:48;98532.78;;;21.04;61.22
64189;BME280;50493;50.970;10.082;2023-07-29T03:53:13;98530.38;;;21.01;60.62
64189;BME280;50493;50.970;10.082;2023-07-29T03:55:39;98524.53;;;20.62;62.49
64189;BME280;50493;50.970;10.082;2023-07-29T03:58:05;98515.09;;;20.69;60.93
64189;BME280;50493;50.970;10.082;2023-07-29T04:00:31;98522.88;;;20.95;62.17
64189;BME280;50493;50.970;10.082;2023-07-29T04:02:56;98516.47;;;20.86;56.11
64189;BME280;50493;50.970;10.082;2023-07-29T04:05:21;98518.78;;;20.91;56.01
64189;BME280;50493;50.970;10.082;2023-07-29T04:07:47;98524.06;;;20.79;55.34
64189;BME280;50493;50.970;10.082;2023-07-29T04:10:12;98522.13;;;20.81;55.18
64189;BME280;50493;50.970;10.082;2023-07-29T04:12:38;98525.06;;;21.12;61.21
64189;BME280;50493;50.970;10.082;2023-07-29T04:15:06;98515.50;;;21.10;55.04
64189;BME280;50493;50.970;10.082;2023-07-29T04:17:32;98515.53;;;20.98;55.00
64189;BME280;50493;50.970;10.082;2023-07-29T04:19:57;98516.84;;;20.93;54.46
64189;BME280;50493;50.970;10.082;2023-07-29T04:22:22;98515.72;;;20.84;54.43
64189;BME280;50493;50.970;10.082;2023-07-29T04:24:48;98503.31;;;21.18;61.31
64189;BME280;50493;50.970;10.082;2023-07-29T04:27:13;98505.59;;;20.78;64.16
64189;BME280;50493;50.970;10.082;2023-07-29T04:29:39;98490.97;;;20.61;64.79
64189;BME280;50493;50.970;10.082;2023-07-29T04:32:06;98494.69;;;20.35;65.04
64189;BME280;50493;50.970;10.082;2023-07-29T04:34:32;98491.03;;;20.36;65.65
64189;BME280;50493;50.970;10.082;2023-07-29T04:36:57;98486.31;;;20.17;63.36
64189;BME280;50493;50.970;10.082;2023-07-29T04:39:22;98492.25;;;20.32;57.53
64189;BME280;50493;50.970;10.082;2023-07-29T04:41:48;98493.16;;;20.67;62.67
64189;BME280;50493;50.970;10.082;2023-07-29T04:44:13;98488.44;;;20.48;56.67
64189;BME280;50493;50.970;10.082;2023-07-29T04:46:39;98484.69;;;20.62;56.93
64189;BME280;50493;50.970;10.082;2023-07-29T04:49:06;98495.31;;;20.73;57.25
64189;BME280;50493;50.970;10.082;2023-07-29T04:51:31;98501.13;;;20.78;54.66
64189;BME280;50493;50.970;10.082;2023-07-29T04:53:57;98493.41;;;20.64;54.87
64189;BME280;50493;50.970;10.082;2023-07-29T04:56:22;98488.34;;;21.06;62.84
64189;BME280;50493;50.970;10.082;2023-07-29T04:58:47;98482.78;;;20.64;64.97
64189;BME280;50493;50.970;10.082;2023-07-29T05:01:13;98480.59;;;20.69;63.94
64189;BME280;50493;50.970;10.082;2023-07-29T05:03:39;98471.50;;;20.37;65.35
64189;BME280;50493;50.970;10.082;2023-07-29T05:06:06;98474.41;;;20.46;63.94
64189;BME280;50493;50.970;10.082;2023-07-29T05:08:32;98476.25;;;20.57;60.10
64189;BME280;50493;50.970;10.082;2023-07-29T05:10:57;98489.09;;;20.97;60.97
64189;BME280;50493;50.970;10.082;2023-07-29T05:13:23;98483.75;;;21.19;63.03
64189;BME280;50493;50.970;10.082;2023-07-29T05:15:48;98481.56;;;21.25;61.40
64189;BME280;50493;50.970;10.082;2023-07-29T05:18:14;98473.00;;;21.21;57.62
64189;BME280;50493;50.970;10.082;2023-07-29T05:20:39;98473.31;;;21.39;61.23
64189;BME280;50493;50.970;10.082;2023-07-29T05:23:06;98474.50;;;21.46;61.37
64189;BME280;50493;50.970;10.082;2023-07-29T05:25:31;98473.56;;;21.36;56.11
64189;BME280;50493;50.970;10.082;2023-07-29T05:27:57;98475.69;;;21.53;58.47
64189;BME280;50493;50.970;10.082;2023-07-29T05:30:22;98476.72;;;21.30;55.16
64189;BME280;50493;50.970;10.082;2023-07-29T05:32:48;98478.50;;;21.52;61.61
64189;BME280;50493;50.970;10.082;2023-07-29T05:35:14;98482.09;;;21.51;58.19
64189;BME280;50493;50.970;10.082;2023-07-29T05:37:40;98483.47;;;21.45;62.76
64189;BME280;50493;50.970;10.082;2023-07-29T05:40:08;98488.53;;;21.48;62.74
64189;BME280;50493;50.970;10.082;2023-07-29T05:42:34;98480.50;;;21.60;61.90
64189;BME280;50493;50.970;10.082;2023-07-29T05:44:59;98483.28;;;20.80;64.39
64189;BME280;50493;50.970;10.082;2023-07-29T05:47:25;98482.78;;;20.86;59.01
64189;BME280;50493;50.970;10.082;2023-07-29T05:49:50;98487.13;;;20.76;58.10
64189;BME280;50493;50.970;10.082;2023-07-29T05:52:16;98484.94;;;20.81;55.19
64189;BME280;50493;50.970;10.082;2023-07-29T05:54:41;98483.63;;;21.10;60.46
64189;BME280;50493;50.970;10.082;2023-07-29T05:57:09;98482.31;;;21.15;61.40
64189;BME280;50493;50.970;10.082;2023-07-29T05:59:35;98480.63;;;21.14;57.76
64189;BME280;50493;50.970;10.082;2023-07-29T06:02:00;98483.50;;;21.23;63.92
64189;BME280;50493;50.970;10.082;2023-07-29T06:04:25;98487.38;;;20.96;57.92
64189;BME280;50493;50.970;10.082;2023-07-29T06:06:51;98481.06;;;20.85;59.19
64189;BME280;50493;50.970;10.082;2023-07-29T06:09:16;98479.78;;;20.91;57.30
64189;BME280;50493;50.970;10.082;2023-07-29T06:11:42;98483.28;;;20.80;56.74
64189;BME280;50493;50.970;10.082;2023-07-29T06:14:08;98492.22;;;21.02;61.95
64189;BME280;50493;50.970;10.082;2023-07-29T06:16:34;98489.91;;;21.20;63.87
64189;BME280;50493;50.970;10.082;2023-07-29T06:18:59;98488.34;;;20.95;64.95
64189;BME280;50493;50.970;10.082;2023-07-29T06:21:24;98479.63;;;20.70;58.78
64189;BME280;50493;50.970;10.082;2023-07-29T06:23:50;98486.41;;;21.08;64.84
64189;BME280;50493;50.970;10.082;2023-07-29T06:26:15;98485.69;;;21.17;58.40
64189;BME280;50493;50.970;10.082;2023-07-29T06:28:41;98483.97;;;21.28;65.70
64189;BME280;50493;50.970;10.082;2023-07-29T06:31:07;98482.53;;;21.24;66.17
64189;BME280;50493;50.970;10.082;2023-07-29T06:33:33;98485.28;;;21.33;55.19
64189;BME280;50493;50.970;10.082;2023-07-29T06:35:58;98488.81;;;21.23;64.01
64189;BME280;50493;50.970;10.082;2023-07-29T06:38:24;98491.72;;;21.19;59.59
64189;BME280;50493;50.970;10.082;2023-07-29T06:40:49;98488.53;;;21.48;61.32
64189;BME280;50493;50.970;10.082;2023-07-29T06:43:14;98481.09;;;21.19;56.80
64189;BME280;50493;50.970;10.082;2023-07-29T06:45:40;98486.88;;;21.25;64.70
64189;BME280;50493;50.970;10.082;2023-07-29T06:48:06;98490.88;;;21.30;57.15
64189;BME280;50493;50.970;10.082;2023-07-29T06:50:32;98491.66;;;21.53;63.32
64189;BME280;50493;50.970;10.082;2023-07-29T06:52:57;98486.13;;;21.34;62.78
64189;BME280;50493;50.970;10.082;2023-07-29T06:55:23;98491.50;;;21.11;63.69
64189;BME280;50493;50.970;10.082;2023-07-29T06:57:48;98485.03;;;21.36;56.76
64189;BME280;50493;50.970;10.082;2023-07-29T07:00:14;98491.97;;;21.28;62.39
64189;BME280;50493;50.970;10.082;2023-07-29T07:02:39;98494.38;;;21.19;62.59
64189;BME280;50493;50.970;10.082;2023-07-29T07:05:06;98500.16;;;21.36;61.32
64189;BME280;50493;50.970;10.082;2023-07-29T07:07:32;98488.22;;;21.19;55.91
64189;BME280;50493;50.970;10.082;2023-07-29T07:09:57;98485.63;;;21.40;59.36
64189;BME280;50493;50.970;10.082;2023-07-29T07:12:22;98490.25;;;21.27;62.41
64189;BME280;50493;50.970;10.082;2023-07-29T07:14:49;98490.75;;;21.20;56.67
64189;BME280;50493;50.970;10.082;2023-07-29T07:17:14;98495.19;;;21.43;61.07
64189;BME280;50493;50.970;10.082;2023-07-29T07:19:40;98492.22;;;21.57;62.68
64189;BME280;50493;50.970;10.082;2023-07-29T07:22:06;98493.44;;;21.53;62.50
64189;BME280;50493;50.970;10.082;2023-07-29T07:24:32;98496.03;;;21.43;58.24
64189;BME280;50493;50.970;10.082;2023-07-29T07:26:57;98492.69;;;21.18;63.19
64189;BME280;50493;50.970;10.082;2023-07-29T07:29:23;98494.47;;;21.29;63.69
64189;BME280;50493;50.970;10.082;2023-07-29T07:31:50;98492.88;;;21.38;63.20
64189;BME280;50493;50.970;10.082;2023-07-29T07:34:16;98481.69;;;21.34;61.66
64189;BME280;50493;50.970;10.082;2023-07-29T07:36:42;98489.06;;;21.19;63.20
64189;BME280;50493;50.970;10.082;2023-07-29T07:39:09;98487.63;;;21.15;57.25
64189;BME280;50493;50.970;10.082;2023-07-29T07:41:34;98482.38;;;21.36;57.61
64189;BME280;50493;50.970;10.082;2023-07-29T07:43:59;98484.19;;;21.36;57.01
64189;BME280;50493;50.970;10.082;2023-07-29T07:46:25;98493.16;;;20.78;63.31
64189;BME280;50493;50.970;10.082;2023-07-29T07:48:50;98489.06;;;21.08;63.34
64189;BME280;50493;50.970;10.082;2023-07-29T07:51:15;98489.91;;;21.20;62.91
64189;BME280;50493;50.970;10.082;2023-07-29T07:53:41;98484.97;;;21.04;62.90
64189;BME280;50493;50.970;10.082;2023-07-29T07:56:08;98475.75;;;21.31;61.42
64189;BME280;50493;50.970;10.082;2023-07-29T07:58:34;98483.66;;;21.65;61.35
64189;BME280;50493;50.970;10.082;2023-07-29T08:01:03;98487.34;;;21.41;60.22
64189;BME280;50493;50.970;10.082;2023-07-29T08:03:28;98481.75;;;21.44;60.60
64189;BME280;50493;50.970;10.082;2023-07-29T08:05:53;98494.16;;;21.00;63.88
64189;BME280;50493;50.970;10.082;2023-07-29T08:08:19;98483.41;;;20.90;64.39
64189;BME280;50493;50.970;10.082;2023-07-29T08:10:44;98480.50;;;21.04;58.24
64189;BME280;50493;50.970;10.082;2023-07-29T08:13:11;98485.31;;;21.22;61.10
64189;BME280;50493;50.970;10.082;2023-07-29T08:15:36;98477.34;;;21.22;58.74
64189;BME280;50493;50.970;10.082;2023-07-29T08:18:02;98474.09;;;20.96;64.04
64189;BME280;50493;50.970;10.082;2023-07-29T08:20:27;98479.38;;;21.30;58.51
64189;BME280;50493;50.970;10.082;2023-07-29T08:22:53;98477.00;;;20.93;63.32
64189;BME280;50493;50.970;10.082;2023-07-29T08:25:18;98477.41;;;21.43;62.04
64189;BME280;50493;50.970;10.082;2023-07-29T08:27:43;98475.19;;;21.60;60.61
64189;BME280;50493;50.970;10.082;2023-07-29T08:30:10;98473.81;;;21.33;60.42
64189;BME280;50493;50.970;10.082;2023-07-29T08:32:36;98481.38;;;21.60;60.66
64189;BME280;50493;50.970;10.082;2023-07-29T08:35:01;98479.06;;;21.67;61.37
64189;BME280;50493;50.970;10.082;2023-07-29T08:37:27;98483.00;;;21.29;61.43
64189;BME280;50493;50.970;10.082;2023-07-29T08:39:52;98488.97;;;21.65;61.70
64189;BME280;50493;50.970;10.082;2023-07-29T08:42:19;98488.09;;;21.76;60.89
64189;BME280;50493;50.970;10.082;2023-07-29T08:44:49;98488.38;;;21.94;61.90
64189;BME280;50493;50.970;10.082;2023-07-29T08:47:16;98483.16;;;21.71;61.95
64189;BME280;50493;50.970;10.082;2023-07-29T08:49:42;98479.22;;;21.86;60.75
64189;BME280;50493;50.970;10.082;2023-07-29T08:52:09;98482.50;;;21.90;58.09
64189;BME280;50493;50.970;10.082;2023-07-29T08:54:35;98479.81;;;22.11;61.49
64189;BME280;50493;50.970;10.082;2023-07-29T08:57:00;98491.09;;;21.82;62.16
64189;BME280;50493;50.970;10.082;2023-07-29T08:59:28;98490.47;;;22.11;62.51
64189;BME280;50493;50.970;10.082;2023-07-29T09:01:54;98494.03;;;21.79;64.15
64189;BME280;50493;50.970;10.082;2023-07-29T09:04:23;98503.50;;;21.93;60.36
64189;BME280;50493;50.970;10.082;2023-07-29T09:06:51;98495.88;;;21.67;64.61
64189;BME280;50493;50.970;10.082;2023-07-29T09:09:16;98500.78;;;21.72;57.50
64189;BME280;50493;50.970;10.082;2023-07-29T09:11:42;98503.00;;;21.67;58.57
64189;BME280;50493;50.970;10.082;2023-07-29T09:14:08;98498.41;;;21.69;58.16
64189;BME280;50493;50.970;10.082;2023-07-29T09:16:34;98505.31;;;21.49;65.92
64189;BME280;50493;50.970;10.082;2023-07-29T09:19:01;98492.13;;;21.47;63.71
64189;BME280;50493;50.970;10.082;2023-07-29T09:21:29;98500.09;;;21.59;62.27
64189;BME280;50493;50.970;10.082;2023-07-29T09:23:55;98499.53;;;21.32;58.59
64189;BME280;50493;50.970;10.082;2023-07-29T09:26:25;98498.94;;;21.29;63.42
64189;BME280;50493;50.970;10.082;2023-07-29T09:28:52;98502.03;;;21.57;63.74
64189;BME280;50493;50.970;10.082;2023-07-29T09:31:19;98495.31;;;21.41;62.40
64189;BME280;50493;50.970;10.082;2023-07-29T09:33:45;98496.63;;;21.47;64.25
64189;BME280;50493;50.970;10.082;2023-07-29T09:36:10;98494.16;;;21.78;58.29
64189;BME280;50493;50.970;10.082;2023-07-29T09:38:38;98492.25;;;21.89;65.91
64189;BME280;50493;50.970;10.082;2023-07-29T09:41:04;98488.59;;;22.23;63.44
64189;BME280;50493;50.970;10.082;2023-07-29T09:43:30;98490.38;;;22.13;63.24
64189;BME280;50493;50.970;10.082;2023-07-29T09:45:59;98488.81;;;22.52;57.44
64189;BME280;50493;50.970;10.082;2023-07-29T09:48:25;98490.63;;;22.31;58.18
64189;BME280;50493;50.970;10.082;2023-07-29T09:50:51;98496.41;;;21.82;57.62
64189;BME280;50493;50.970;10.082;2023-07-29T09:53:16;98495.88;;;22.21;57.44
64189;BME280;50493;50.970;10.082;2023-07-29T09:55:47;98488.94;;;22.30;63.87
64189;BME280;50493;50.970;10.082;2023-07-29T09:58:14;98476.78;;;23.10;57.83
64189;BME280;50493;50.970;10.082;2023-07-29T10:00:40;98480.50;;;22.67;56.04
64189;BME280;50493;50.970;10.082;2023-07-29T10:03:06;98476.75;;;22.79;57.23
64189;BME280;50493;50.970;10.082;2023-07-29T10:05:32;98467.69;;;22.92;54.78
64189;BME280;50493;50.970;10.082;2023-07-29T10:08:00;98467.13;;;23.29;56.50
64189;BME280;50493;50.970;10.082;2023-07-29T10:10:27;98467.66;;;22.82;56.84
64189;BME280;50493;50.970;10.082;2023-07-29T10:12:54;98465.94;;;22.71;57.28
64189;BME280;50493;50.970;10.082;2023-07-29T10:15:20;98466.25;;;22.78;56.66
64189;BME280;50493;50.970;10.082;2023-07-29T10:17:46;98467.69;;;22.92;58.64
64189;BME280;50493;50.970;10.082;2023-07-29T10:20:11;98458.66;;;22.83;55.06
64189;BME280;50493;50.970;10.082;2023-07-29T10:22:38;98468.53;;;23.02;58.87
64189;BME280;50493;50.970;10.082;2023-07-29T10:25:05;98465.66;;;22.74;57.91
64189;BME280;50493;50.970;10.082;2023-07-29T10:27:37;98457.66;;;22.74;54.71
64189;BME280;50493;50.970;10.082;2023-07-29T10:30:10;98460.63;;;22.08;56.71
64189;BME280;50493;50.970;10.082;2023-07-29T10:32:36;98470.22;;;22.93;56.23
64189;BME280;50493;50.970;10.082;2023-07-29T10:35:02;98453.13;;;22.96;53.98
64189;BME280;50493;50.970;10.082;2023-07-29T10:37:27;98452.84;;;22.99;54.72
64189;BME280;50493;50.970;10.082;2023-07-29T10:39:54;98460.97;;;23.38;55.71
64189;BME280;50493;50.970;10.082;2023-07-29T10:42:19;98451.03;;;23.99;53.43
64189;BME280;50493;50.970;10.082;2023-07-29T10:44:49;98455.25;;;24.01;51.54
64189;BME280;50493;50.970;10.082;2023-07-29T10:47:17;98445.38;;;24.31;52.50
64189;BME280;50493;50.970;10.082;2023-07-29T10:49:44;98460.59;;;23.92;51.84
64189;BME280;50493;50.970;10.082;2023-07-29T10:52:13;98460.81;;;24.28;49.54
64189;BME280;50493;50.970;10.082;2023-07-29T10:54:42;98449.16;;;24.48;48.91
64189;BME280;50493;50.970;10.082;2023-07-29T10:57:07;98443.81;;;24.48;48.53
64189;BME280;50493;50.970;10.082;2023-07-29T10:59:33;98435.25;;;24.35;47.12
64189;BME280;50493;50.970;10.082;2023-07-29T11:02:01;98434.22;;;24.55;49.27
64189;BME280;50493;50.970;10.082;2023-07-29T11:04:29;98435.50;;;24.79;49.72
64189;BME280;50493;50.970;10.082;2023-07-29T11:07:21;98437.69;;;24.94;49.20
64189;BME280;50493;50.970;10.082;2023-07-29T11:09:54;98425.69;;;25.08;49.21
64189;BME280;50493;50.970;10.082;2023-07-29T11:12:41;98432.31;;;25.31;47.63
64189;BME280;50493;50.970;10.082;2023-07-29T11:15:19;98441.94;;;25.60;47.34
64189;BME280;50493;50.970;10.082;2023-07-29T11:17:47;98433.50;;;25.65;47.00
64189;BME280;50493;50.970;10.082;2023-07-29T11:20:15;98424.44;;;25.30;49.02
64189;BME280;50493;50.970;10.082;2023-07-29T11:22:41;98426.75;;;25.61;47.35
64189;BME280;50493;50.970;10.082;2023-07-29T11:25:08;98421.13;;;25.64;47.84
64189;BME280;50493;50.970;10.082;2023-07-29T11:27:34;98411.19;;;25.74;46.08
64189;BME280;50493;50.970;10.082;2023-07-29T11:30:00;98419.81;;;26.12;46.36
64189;BME280;50493;50.970;10.082;2023-07-29T11:32:25;98415.59;;;26.54;44.85
64189;BME280;50493;50.970;10.082;2023-07-29T11:34:51;98419.56;;;26.84;44.36
64189;BME280;50493;50.970;10.082;2023-07-29T11:37:18;98420.19;;;26.17;46.57
64189;BME280;50493;50.970;10.082;2023-07-29T11:39:46;98413.59;;;26.12;45.23
64189;BME280;50493;50.970;10.082;2023-07-29T11:42:12;98413.09;;;26.08;47.75
64189;BME280;50493;50.970;10.082;2023-07-29T11:44:37;98403.50;;;25.79;48.97
64189;BME280;50493;50.970;10.082;2023-07-29T11:47:05;98402.94;;;26.38;46.15
64189;BME280;50493;50.970;10.082;2023-07-29T11:49:32;98400.78;;;26.84;41.21
64189;BME280;50493;50.970;10.082;2023-07-29T11:51:58;98403.34;;;26.51;47.05
64189;BME280;50493;50.970;10.082;2023-07-29T11:54:24;98391.00;;;26.67;41.28
64189;BME280;50493;50.970;10.082;2023-07-29T11:56:50;98392.56;;;26.17;44.07
64189;BME280;50493;50.970;10.082;2023-07-29T11:59:16;98392.69;;;26.33;44.69
64189;BME280;50493;50.970;10.082;2023-07-29T12:01:41;98400.63;;;26.43;44.13
64189;BME280;50493;50.970;10.082;2023-07-29T12:04:07;98388.81;;;26.28;40.05
64189;BME280;50493;50.970;10.082;2023-07-29T12:06:32;98399.13;;;25.60;49.47
64189;BME280;50493;50.970;10.082;2023-07-29T12:08:58;98399.84;;;25.80;43.87
64189;BME280;50493;50.970;10.082;2023-07-29T12:11:25;98397.84;;;25.82;48.21
64189;BME280;50493;50.970;10.082;2023-07-29T12:13:53;98405.44;;;25.69;50.12
64189;BME280;50493;50.970;10.082;2023-07-29T12:16:18;98415.50;;;25.93;43.71
64189;BME280;50493;50.970;10.082;2023-07-29T12:18:44;98416.66;;;25.54;45.75
64189;BME280;50493;50.970;10.082;2023-07-29T12:21:09;98415.91;;;25.80;45.04
64189;BME280;50493;50.970;10.082;2023-07-29T12:23:35;98427.78;;;25.32;50.21
64189;BME280;50493;50.970;10.082;2023-07-29T12:26:01;98425.59;;;25.27;50.06
64189;BME280;50493;50.970;10.082;2023-07-29T12:28:28;98432.66;;;24.90;48.95
64189;BME280;50493;50.970;10.082;2023-07-29T12:30:53;98433.03;;;24.40;50.29
64189;BME280;50493;50.970;10.082;2023-07-29T12:33:29;98450.78;;;23.82;55.91
64189;BME280;50493;50.970;10.082;2023-07-29T12:35:55;98457.47;;;23.67;56.58
64189;BME280;50493;50.970;10.082;2023-07-29T12:38:21;98461.41;;;23.53;55.82
64189;BME280;50493;50.970;10.082;2023-07-29T12:40:46;98475.16;;;23.48;57.40
64189;BME280;50493;50.970;10.082;2023-07-29T12:43:11;98475.41;;;23.35;59.29
64189;BME280;50493;50.970;10.082;2023-07-29T12:45:38;98480.28;;;23.20;59.64